sensor_id;sensor_type;location;lat;lon;timestamp;P1;durP1;ratioP1;P2;durP2;ratioP2
51556;SDS011;38766;53.194;5.532;2024-02-21T00:00:54;33.55;;;5.30;;
51556;SDS011;38766;53.194;5.532;2024-02-21T00:03:19;21.40;;;4.65;;
51556;SDS011;38766;53.194;5.532;2024-02-21T00:05:45;28.90;;;5.03;;
51556;SDS011;38766;53.194;5.532;2024-02-21T00:08:11;35.08;;;6.07;;
51556;SDS011;38766;53.194;5.532;2024-02-21T00:10:36;26.95;;;6.03;;
51556;SDS011;38766;53.194;5.532;2024-02-21T00:13:02;23.23;;;4.70;;
51556;SDS011;38766;53.194;5.532;2024-02-21T00:15:28;28.30;;;5.53;;
51556;SDS011;38766;53.194;5.532;2024-02-21T00:17:54;22.73;;;5.03;;
51556;SDS011;38766;53.194;5.532;2024-02-21T00:20:19;26.83;;;5.68;;
51556;SDS011;38766;53.194;5.532;2024-02-21T00:22:45;25.95;;;4.90;;
51556;SDS011;38766;53.194;5.532;2024-02-21T00:25:11;29.10;;;5.25;;
51556;SDS011;38766;53.194;5.532;2024-02-21T00:27:37;30.40;;;5.78;;
51556;SDS011;38766;53.194;5.532;2024-02-21T00:30:04;27.95;;;4.90;;
51556;SDS011;38766;53.194;5.532;2024-02-21T00:32:30;26.20;;;5.30;;
51556;SDS011;38766;53.194;5.532;2024-02-21T00:34:57;28.95;;;6.00;;
51556;SDS011;38766;53.194;5.532;2024-02-21T00:37:22;33.08;;;5.75;;
51556;SDS011;38766;53.194;5.532;2024-02-21T00:39:48;36.22;;;5.75;;
51556;SDS011;38766;53.194;5.532;2024-02-21T00:42:14;34.17;;;6.15;;
51556;SDS011;38766;53.194;5.532;2024-02-21T00:44:39;34.95;;;5.15;;
51556;SDS011;38766;53.194;5.532;2024-02-21T00:47:05;32.20;;;5.63;;
51556;SDS011;38766;53.194;5.532;2024-02-21T00:49:31;28.60;;;6.03;;
51556;SDS011;38766;53.194;5.532;2024-02-21T00:51:56;33.50;;;5.03;;
51556;SDS011;38766;53.194;5.532;2024-02-21T00:54:22;26.48;;;5.43;;
51556;SDS011;38766;53.194;5.532;2024-02-21T00:56:48;27.38;;;5.45;;
51556;SDS011;38766;53.194;5.532;2024-02-21T00:59:13;35.05;;;5.82;;
51556;SDS011;38766;53.194;5.532;2024-02-21T01:01:39;29.17;;;6.07;;
51556;SDS011;38766;53.194;5.532;2024-02-21T01:04:07;34.95;;;6.63;;
51556;SDS011;38766;53.194;5.532;2024-02-21T01:06:34;26.42;;;6.25;;
51556;SDS011;38766;53.194;5.532;2024-02-21T01:09:00;26.63;;;5.45;;
51556;SDS011;38766;53.194;5.532;2024-02-21T01:11:25;25.50;;;5.68;;
51556;SDS011;38766;53.194;5.532;2024-02-21T01:13:51;25.73;;;5.10;;
51556;SDS011;38766;53.194;5.532;2024-02-21T01:16:17;25.50;;;6.20;;
51556;SDS011;38766;53.194;5.532;2024-02-21T01:18:42;32.20;;;7.13;;
51556;SDS011;38766;53.194;5.532;2024-02-21T01:21:08;39.60;;;6.65;;
51556;SDS011;38766;53.194;5.532;2024-02-21T01:23:35;32.65;;;6.32;;
51556;SDS011;38766;53.194;5.532;2024-02-21T01:26:01;35.22;;;6.03;;
51556;SDS011;38766;53.194;5.532;2024-02-21T01:28:28;28.58;;;5.85;;
51556;SDS011;38766;53.194;5.532;2024-02-21T01:30:54;29.35;;;6.43;;
51556;SDS011;38766;53.194;5.532;2024-02-21T01:33:19;37.70;;;6.07;;
51556;SDS011;38766;53.194;5.532;2024-02-21T01:35:45;27.30;;;5.35;;
51556;SDS011;38766;53.194;5.532;2024-02-21T01:38:12;34.28;;;6.05;;
51556;SDS011;38766;53.194;5.532;2024-02-21T01:40:38;25.85;;;6.25;;
51556;SDS011;38766;53.194;5.532;2024-02-21T01:43:04;23.38;;;4.90;;
51556;SDS011;38766;53.194;5.532;2024-02-21T01:45:41;38.30;;;6.85;;
51556;SDS011;38766;53.194;5.532;2024-02-21T01:48:07;37.22;;;6.63;;
51556;SDS011;38766;53.194;5.532;2024-02-21T01:50:32;34.58;;;6.18;;
51556;SDS011;38766;53.194;5.532;2024-02-21T01:52:58;27.95;;;6.80;;
51556;SDS011;38766;53.194;5.532;2024-02-21T01:55:25;28.60;;;6.45;;
51556;SDS011;38766;53.194;5.532;2024-02-21T01:57:50;30.10;;;5.40;;
51556;SDS011;38766;53.194;5.532;2024-02-21T02:00:17;25.83;;;5.63;;
51556;SDS011;38766;53.194;5.532;2024-02-21T02:02:43;29.10;;;5.63;;
51556;SDS011;38766;53.194;5.532;2024-02-21T02:05:10;35.33;;;5.95;;
51556;SDS011;38766;53.194;5.532;2024-02-21T02:07:36;23.20;;;5.03;;
51556;SDS011;38766;53.194;5.532;2024-02-21T02:10:02;29.90;;;5.55;;
51556;SDS011;38766;53.194;5.532;2024-02-21T02:12:27;33.13;;;6.47;;
51556;SDS011;38766;53.194;5.532;2024-02-21T02:15:00;27.75;;;5.63;;
51556;SDS011;38766;53.194;5.532;2024-02-21T02:17:26;32.58;;;5.20;;
51556;SDS011;38766;53.194;5.532;2024-02-21T02:19:51;29.23;;;5.43;;
51556;SDS011;38766;53.194;5.532;2024-02-21T02:22:19;31.42;;;5.72;;
51556;SDS011;38766;53.194;5.532;2024-02-21T02:24:51;22.63;;;5.63;;
51556;SDS011;38766;53.194;5.532;2024-02-21T02:27:16;37.47;;;5.32;;
51556;SDS011;38766;53.194;5.532;2024-02-21T02:29:42;31.63;;;5.43;;
51556;SDS011;38766;53.194;5.532;2024-02-21T02:32:08;43.30;;;6.22;;
51556;SDS011;38766;53.194;5.532;2024-02-21T02:34:34;30.83;;;5.38;;
51556;SDS011;38766;53.194;5.532;2024-02-21T02:36:59;31.20;;;4.90;;
51556;SDS011;38766;53.194;5.532;2024-02-21T02:39:25;31.48;;;6.15;;
51556;SDS011;38766;53.194;5.532;2024-02-21T02:41:50;42.15;;;5.85;;
51556;SDS011;38766;53.194;5.532;2024-02-21T02:44:16;27.80;;;6.13;;
51556;SDS011;38766;53.194;5.532;2024-02-21T02:46:42;35.28;;;6.47;;
51556;SDS011;38766;53.194;5.532;2024-02-21T02:49:07;29.08;;;6.43;;
51556;SDS011;38766;53.194;5.532;2024-02-21T02:51:33;29.85;;;4.93;;
51556;SDS011;38766;53.194;5.532;2024-02-21T02:53:59;39.03;;;6.05;;
51556;SDS011;38766;53.194;5.532;2024-02-21T02:56:24;31.20;;;6.50;;
51556;SDS011;38766;53.194;5.532;2024-02-21T02:58:50;33.00;;;6.07;;
51556;SDS011;38766;53.194;5.532;2024-02-21T03:01:15;32.08;;;5.28;;
51556;SDS011;38766;53.194;5.532;2024-02-21T03:03:41;41.08;;;6.93;;
51556;SDS011;38766;53.194;5.532;2024-02-21T03:06:07;38.22;;;8.13;;
51556;SDS011;38766;53.194;5.532;2024-02-21T03:08:32;41.63;;;6.05;;
51556;SDS011;38766;53.194;5.532;2024-02-21T03:10:59;30.90;;;5.90;;
51556;SDS011;38766;53.194;5.532;2024-02-21T03:13:25;32.20;;;5.78;;
51556;SDS011;38766;53.194;5.532;2024-02-21T03:15:51;39.53;;;6.20;;
51556;SDS011;38766;53.194;5.532;2024-02-21T03:18:16;33.20;;;6.03;;
51556;SDS011;38766;53.194;5.532;2024-02-21T03:20:42;27.85;;;6.38;;
51556;SDS011;38766;53.194;5.532;2024-02-21T03:23:07;29.85;;;6.00;;
51556;SDS011;38766;53.194;5.532;2024-02-21T03:25:33;24.15;;;5.20;;
51556;SDS011;38766;53.194;5.532;2024-02-21T03:27:59;36.55;;;6.22;;
51556;SDS011;38766;53.194;5.532;2024-02-21T03:30:24;22.55;;;5.18;;
51556;SDS011;38766;53.194;5.532;2024-02-21T03:32:50;31.65;;;5.78;;
51556;SDS011;38766;53.194;5.532;2024-02-21T03:35:16;35.13;;;6.35;;
51556;SDS011;38766;53.194;5.532;2024-02-21T03:37:41;47.70;;;5.88;;
51556;SDS011;38766;53.194;5.532;2024-02-21T03:40:09;29.63;;;5.82;;
51556;SDS011;38766;53.194;5.532;2024-02-21T03:42:35;28.85;;;5.95;;
51556;SDS011;38766;53.194;5.532;2024-02-21T03:45:02;29.38;;;6.55;;
51556;SDS011;38766;53.194;5.532;2024-02-21T03:47:28;29.45;;;4.90;;
51556;SDS011;38766;53.194;5.532;2024-02-21T03:49:54;30.30;;;5.68;;
51556;SDS011;38766;53.194;5.532;2024-02-21T03:52:20;23.38;;;5.38;;
51556;SDS011;38766;53.194;5.532;2024-02-21T03:54:45;29.13;;;6.00;;
51556;SDS011;38766;53.194;5.532;2024-02-21T03:57:11;25.08;;;5.90;;
51556;SDS011;38766;53.194;5.532;2024-02-21T03:59:36;34.25;;;5.45;;
51556;SDS011;38766;53.194;5.532;2024-02-21T04:02:05;26.92;;;5.57;;
51556;SDS011;38766;53.194;5.532;2024-02-21T04:04:33;24.55;;;5.10;;
51556;SDS011;38766;53.194;5.532;2024-02-21T04:07:00;34.78;;;6.70;;
51556;SDS011;38766;53.194;5.532;2024-02-21T04:09:26;36.55;;;6.35;;
51556;SDS011;38766;53.194;5.532;2024-02-21T04:11:52;29.20;;;5.45;;
51556;SDS011;38766;53.194;5.532;2024-02-21T04:14:17;36.50;;;6.10;;
51556;SDS011;38766;53.194;5.532;2024-02-21T04:16:43;27.88;;;6.30;;
51556;SDS011;38766;53.194;5.532;2024-02-21T04:19:09;32.85;;;7.68;;
51556;SDS011;38766;53.194;5.532;2024-02-21T04:21:35;41.53;;;8.93;;
51556;SDS011;38766;53.194;5.532;2024-02-21T04:24:00;26.73;;;5.05;;
51556;SDS011;38766;53.194;5.532;2024-02-21T04:26:27;33.22;;;5.80;;
51556;SDS011;38766;53.194;5.532;2024-02-21T04:28:52;20.65;;;4.93;;
51556;SDS011;38766;53.194;5.532;2024-02-21T04:31:18;22.48;;;5.32;;
51556;SDS011;38766;53.194;5.532;2024-02-21T04:33:43;31.83;;;5.63;;
51556;SDS011;38766;53.194;5.532;2024-02-21T04:36:09;31.02;;;6.57;;
51556;SDS011;38766;53.194;5.532;2024-02-21T04:38:35;28.10;;;5.63;;
51556;SDS011;38766;53.194;5.532;2024-02-21T04:41:00;30.75;;;5.43;;
51556;SDS011;38766;53.194;5.532;2024-02-21T04:43:26;27.08;;;4.93;;
51556;SDS011;38766;53.194;5.532;2024-02-21T04:45:52;31.67;;;5.82;;
51556;SDS011;38766;53.194;5.532;2024-02-21T04:48:18;34.90;;;5.40;;
51556;SDS011;38766;53.194;5.532;2024-02-21T04:50:44;29.10;;;5.93;;
51556;SDS011;38766;53.194;5.532;2024-02-21T04:53:10;22.60;;;5.10;;
51556;SDS011;38766;53.194;5.532;2024-02-21T04:55:35;33.28;;;5.57;;
51556;SDS011;38766;53.194;5.532;2024-02-21T04:58:01;31.38;;;5.47;;
51556;SDS011;38766;53.194;5.532;2024-02-21T05:00:27;25.00;;;5.68;;
51556;SDS011;38766;53.194;5.532;2024-02-21T05:02:53;32.92;;;4.95;;
51556;SDS011;38766;53.194;5.532;2024-02-21T05:05:18;25.60;;;4.65;;
51556;SDS011;38766;53.194;5.532;2024-02-21T05:07:44;30.75;;;6.05;;
51556;SDS011;38766;53.194;5.532;2024-02-21T05:10:10;33.05;;;6.30;;
51556;SDS011;38766;53.194;5.532;2024-02-21T05:12:35;26.23;;;5.53;;
51556;SDS011;38766;53.194;5.532;2024-02-21T05:15:01;23.33;;;5.15;;
51556;SDS011;38766;53.194;5.532;2024-02-21T05:17:28;30.85;;;5.55;;
51556;SDS011;38766;53.194;5.532;2024-02-21T05:19:54;28.27;;;6.13;;
51556;SDS011;38766;53.194;5.532;2024-02-21T05:22:19;30.27;;;5.88;;
51556;SDS011;38766;53.194;5.532;2024-02-21T05:24:45;26.75;;;4.88;;
51556;SDS011;38766;53.194;5.532;2024-02-21T05:27:11;28.35;;;6.40;;
51556;SDS011;38766;53.194;5.532;2024-02-21T05:29:36;26.58;;;5.40;;
51556;SDS011;38766;53.194;5.532;2024-02-21T05:32:02;30.40;;;5.53;;
51556;SDS011;38766;53.194;5.532;2024-02-21T05:34:28;26.33;;;5.35;;
51556;SDS011;38766;53.194;5.532;2024-02-21T05:36:53;33.42;;;5.82;;
51556;SDS011;38766;53.194;5.532;2024-02-21T05:39:19;32.60;;;5.90;;
51556;SDS011;38766;53.194;5.532;2024-02-21T05:41:47;37.50;;;6.38;;
51556;SDS011;38766;53.194;5.532;2024-02-21T05:44:13;29.98;;;5.63;;
51556;SDS011;38766;53.194;5.532;2024-02-21T05:46:39;31.23;;;5.90;;
51556;SDS011;38766;53.194;5.532;2024-02-21T05:49:05;29.33;;;5.55;;
51556;SDS011;38766;53.194;5.532;2024-02-21T05:51:32;31.45;;;5.43;;
51556;SDS011;38766;53.194;5.532;2024-02-21T05:53:58;32.08;;;6.35;;
51556;SDS011;38766;53.194;5.532;2024-02-21T05:56:24;26.80;;;5.25;;
51556;SDS011;38766;53.194;5.532;2024-02-21T05:58:49;29.17;;;6.38;;
51556;SDS011;38766;53.194;5.532;2024-02-21T06:01:15;34.38;;;6.47;;
51556;SDS011;38766;53.194;5.532;2024-02-21T06:03:40;24.23;;;5.32;;
51556;SDS011;38766;53.194;5.532;2024-02-21T06:06:06;26.23;;;6.22;;
51556;SDS011;38766;53.194;5.532;2024-02-21T06:08:32;32.50;;;6.15;;
51556;SDS011;38766;53.194;5.532;2024-02-21T06:10:57;25.63;;;5.43;;
51556;SDS011;38766;53.194;5.532;2024-02-21T06:13:23;24.60;;;5.22;;
51556;SDS011;38766;53.194;5.532;2024-02-21T06:15:49;19.95;;;4.80;;
51556;SDS011;38766;53.194;5.532;2024-02-21T06:18:16;20.45;;;5.00;;
51556;SDS011;38766;53.194;5.532;2024-02-21T06:20:43;19.10;;;5.45;;
51556;SDS011;38766;53.194;5.532;2024-02-21T06:23:08;25.00;;;4.93;;
51556;SDS011;38766;53.194;5.532;2024-02-21T06:25:34;22.58;;;5.63;;
51556;SDS011;38766;53.194;5.532;2024-02-21T06:28:00;24.30;;;5.28;;
51556;SDS011;38766;53.194;5.532;2024-02-21T06:30:25;22.77;;;5.70;;
51556;SDS011;38766;53.194;5.532;2024-02-21T06:32:51;28.75;;;6.10;;
51556;SDS011;38766;53.194;5.532;2024-02-21T06:35:17;22.85;;;5.43;;
51556;SDS011;38766;53.194;5.532;2024-02-21T06:37:44;27.02;;;4.95;;
51556;SDS011;38766;53.194;5.532;2024-02-21T06:40:15;34.97;;;6.03;;
51556;SDS011;38766;53.194;5.532;2024-02-21T06:42:41;29.73;;;5.63;;
51556;SDS011;38766;53.194;5.532;2024-02-21T06:45:07;25.80;;;5.88;;
51556;SDS011;38766;53.194;5.532;2024-02-21T06:47:32;25.85;;;6.28;;
51556;SDS011;38766;53.194;5.532;2024-02-21T06:49:58;28.48;;;6.65;;
51556;SDS011;38766;53.194;5.532;2024-02-21T06:52:23;24.67;;;5.90;;
51556;SDS011;38766;53.194;5.532;2024-02-21T06:54:49;31.58;;;5.63;;
51556;SDS011;38766;53.194;5.532;2024-02-21T06:57:15;22.23;;;5.57;;
51556;SDS011;38766;53.194;5.532;2024-02-21T06:59:41;30.30;;;5.50;;
51556;SDS011;38766;53.194;5.532;2024-02-21T07:02:07;35.05;;;6.72;;
51556;SDS011;38766;53.194;5.532;2024-02-21T07:04:33;30.00;;;5.85;;
51556;SDS011;38766;53.194;5.532;2024-02-21T07:06:59;18.60;;;6.20;;
51556;SDS011;38766;53.194;5.532;2024-02-21T07:09:25;35.38;;;7.25;;
51556;SDS011;38766;53.194;5.532;2024-02-21T07:11:50;28.50;;;7.15;;
51556;SDS011;38766;53.194;5.532;2024-02-21T07:14:17;32.38;;;7.90;;
51556;SDS011;38766;53.194;5.532;2024-02-21T07:16:43;28.00;;;7.50;;
51556;SDS011;38766;53.194;5.532;2024-02-21T07:19:09;31.00;;;7.35;;
51556;SDS011;38766;53.194;5.532;2024-02-21T07:21:34;32.75;;;7.70;;
51556;SDS011;38766;53.194;5.532;2024-02-21T07:24:03;32.72;;;7.70;;
51556;SDS011;38766;53.194;5.532;2024-02-21T07:26:29;33.28;;;8.15;;
51556;SDS011;38766;53.194;5.532;2024-02-21T07:28:56;28.40;;;8.00;;
51556;SDS011;38766;53.194;5.532;2024-02-21T07:31:21;34.95;;;9.13;;
51556;SDS011;38766;53.194;5.532;2024-02-21T07:33:47;31.33;;;8.32;;
51556;SDS011;38766;53.194;5.532;2024-02-21T07:36:14;30.08;;;8.45;;
51556;SDS011;38766;53.194;5.532;2024-02-21T07:38:40;35.20;;;7.68;;
51556;SDS011;38766;53.194;5.532;2024-02-21T07:41:06;34.53;;;8.68;;
51556;SDS011;38766;53.194;5.532;2024-02-21T07:43:32;36.60;;;8.88;;
51556;SDS011;38766;53.194;5.532;2024-02-21T07:45:58;42.20;;;9.05;;
51556;SDS011;38766;53.194;5.532;2024-02-21T07:48:23;41.22;;;8.35;;
51556;SDS011;38766;53.194;5.532;2024-02-21T07:50:52;43.13;;;9.10;;
51556;SDS011;38766;53.194;5.532;2024-02-21T07:53:17;37.17;;;9.57;;
51556;SDS011;38766;53.194;5.532;2024-02-21T07:55:45;29.27;;;8.57;;
51556;SDS011;38766;53.194;5.532;2024-02-21T07:58:10;40.20;;;8.70;;
51556;SDS011;38766;53.194;5.532;2024-02-21T08:00:36;34.35;;;8.98;;
51556;SDS011;38766;53.194;5.532;2024-02-21T08:03:02;42.50;;;8.10;;
51556;SDS011;38766;53.194;5.532;2024-02-21T08:05:28;36.88;;;8.80;;
51556;SDS011;38766;53.194;5.532;2024-02-21T08:07:55;51.97;;;9.20;;
51556;SDS011;38766;53.194;5.532;2024-02-21T08:10:20;37.65;;;9.23;;
51556;SDS011;38766;53.194;5.532;2024-02-21T08:12:46;33.10;;;7.50;;
51556;SDS011;38766;53.194;5.532;2024-02-21T08:15:11;30.40;;;7.32;;
51556;SDS011;38766;53.194;5.532;2024-02-21T08:17:37;30.88;;;8.80;;
51556;SDS011;38766;53.194;5.532;2024-02-21T08:20:04;25.33;;;7.47;;
51556;SDS011;38766;53.194;5.532;2024-02-21T08:22:30;30.17;;;7.38;;
51556;SDS011;38766;53.194;5.532;2024-02-21T08:24:55;34.22;;;7.43;;
51556;SDS011;38766;53.194;5.532;2024-02-21T08:27:21;30.30;;;7.45;;
51556;SDS011;38766;53.194;5.532;2024-02-21T08:29:46;27.98;;;6.85;;
51556;SDS011;38766;53.194;5.532;2024-02-21T08:32:12;32.70;;;7.15;;
51556;SDS011;38766;53.194;5.532;2024-02-21T08:34:38;34.33;;;7.75;;
51556;SDS011;38766;53.194;5.532;2024-02-21T08:37:03;25.10;;;6.78;;
51556;SDS011;38766;53.194;5.532;2024-02-21T08:39:29;38.63;;;8.82;;
51556;SDS011;38766;53.194;5.532;2024-02-21T08:41:55;31.17;;;7.93;;
51556;SDS011;38766;53.194;5.532;2024-02-21T08:44:22;32.72;;;7.75;;
51556;SDS011;38766;53.194;5.532;2024-02-21T08:46:52;27.45;;;7.68;;
51556;SDS011;38766;53.194;5.532;2024-02-21T08:49:18;26.13;;;7.28;;
51556;SDS011;38766;53.194;5.532;2024-02-21T08:51:44;23.73;;;7.13;;
51556;SDS011;38766;53.194;5.532;2024-02-21T08:54:09;22.35;;;6.65;;
51556;SDS011;38766;53.194;5.532;2024-02-21T08:56:35;32.13;;;6.55;;
51556;SDS011;38766;53.194;5.532;2024-02-21T08:59:01;26.17;;;8.02;;
51556;SDS011;38766;53.194;5.532;2024-02-21T09:01:27;23.08;;;6.63;;
51556;SDS011;38766;53.194;5.532;2024-02-21T09:03:52;25.70;;;7.72;;
51556;SDS011;38766;53.194;5.532;2024-02-21T09:06:19;26.05;;;6.90;;
51556;SDS011;38766;53.194;5.532;2024-02-21T09:08:47;22.83;;;6.95;;
51556;SDS011;38766;53.194;5.532;2024-02-21T09:11:13;26.08;;;8.05;;
51556;SDS011;38766;53.194;5.532;2024-02-21T09:13:39;20.95;;;7.32;;
51556;SDS011;38766;53.194;5.532;2024-02-21T09:16:05;29.40;;;8.80;;
51556;SDS011;38766;53.194;5.532;2024-02-21T09:18:31;13.32;;;6.32;;
51556;SDS011;38766;53.194;5.532;2024-02-21T09:20:56;22.35;;;7.63;;
51556;SDS011;38766;53.194;5.532;2024-02-21T09:23:25;27.38;;;9.00;;
51556;SDS011;38766;53.194;5.532;2024-02-21T09:25:51;17.55;;;7.72;;
51556;SDS011;38766;53.194;5.532;2024-02-21T09:28:16;18.73;;;8.82;;
51556;SDS011;38766;53.194;5.532;2024-02-21T09:30:42;24.27;;;9.30;;
51556;SDS011;38766;53.194;5.532;2024-02-21T09:33:08;25.50;;;10.93;;
51556;SDS011;38766;53.194;5.532;2024-02-21T09:35:34;26.73;;;11.10;;
51556;SDS011;38766;53.194;5.532;2024-02-21T09:37:59;24.48;;;10.68;;
51556;SDS011;38766;53.194;5.532;2024-02-21T09:40:26;28.63;;;11.60;;
51556;SDS011;38766;53.194;5.532;2024-02-21T09:42:55;25.70;;;11.60;;
51556;SDS011;38766;53.194;5.532;2024-02-21T09:45:32;21.40;;;11.38;;
51556;SDS011;38766;53.194;5.532;2024-02-21T09:48:04;22.45;;;12.52;;
51556;SDS011;38766;53.194;5.532;2024-02-21T09:51:07;23.85;;;12.63;;
51556;SDS011;38766;53.194;5.532;2024-02-21T09:53:36;31.02;;;13.13;;
51556;SDS011;38766;53.194;5.532;2024-02-21T09:56:03;24.88;;;13.23;;
51556;SDS011;38766;53.194;5.532;2024-02-21T09:58:32;28.88;;;13.80;;
51556;SDS011;38766;53.194;5.532;2024-02-21T10:00:59;23.35;;;13.15;;
51556;SDS011;38766;53.194;5.532;2024-02-21T10:03:25;22.73;;;13.20;;
51556;SDS011;38766;53.194;5.532;2024-02-21T10:05:51;31.23;;;14.13;;
51556;SDS011;38766;53.194;5.532;2024-02-21T10:08:17;22.23;;;13.27;;
51556;SDS011;38766;53.194;5.532;2024-02-21T10:10:44;26.65;;;13.55;;
51556;SDS011;38766;53.194;5.532;2024-02-21T10:13:21;24.30;;;14.32;;
51556;SDS011;38766;53.194;5.532;2024-02-21T10:16:07;26.52;;;13.10;;
51556;SDS011;38766;53.194;5.532;2024-02-21T10:18:33;23.73;;;13.85;;
51556;SDS011;38766;53.194;5.532;2024-02-21T10:21:03;22.27;;;13.68;;
51556;SDS011;38766;53.194;5.532;2024-02-21T10:26:11;23.35;;;14.77;;
51556;SDS011;38766;53.194;5.532;2024-02-21T10:28:37;27.30;;;14.75;;
51556;SDS011;38766;53.194;5.532;2024-02-21T10:31:09;24.45;;;15.52;;
51556;SDS011;38766;53.194;5.532;2024-02-21T10:33:55;24.65;;;15.73;;
51556;SDS011;38766;53.194;5.532;2024-02-21T10:36:27;25.42;;;15.75;;
51556;SDS011;38766;53.194;5.532;2024-02-21T10:38:54;26.88;;;16.02;;
51556;SDS011;38766;53.194;5.532;2024-02-21T10:41:20;26.40;;;16.38;;
51556;SDS011;38766;53.194;5.532;2024-02-21T10:43:49;29.77;;;15.90;;
51556;SDS011;38766;53.194;5.532;2024-02-21T10:46:18;28.17;;;16.63;;
51556;SDS011;38766;53.194;5.532;2024-02-21T10:48:45;25.35;;;16.48;;
51556;SDS011;38766;53.194;5.532;2024-02-21T10:51:19;29.58;;;17.17;;
51556;SDS011;38766;53.194;5.532;2024-02-21T10:53:54;30.52;;;16.30;;
51556;SDS011;38766;53.194;5.532;2024-02-21T10:56:44;29.35;;;16.92;;
51556;SDS011;38766;53.194;5.532;2024-02-21T10:59:11;26.17;;;16.13;;
51556;SDS011;38766;53.194;5.532;2024-02-21T11:01:38;27.40;;;16.48;;
51556;SDS011;38766;53.194;5.532;2024-02-21T11:04:05;32.53;;;18.25;;
51556;SDS011;38766;53.194;5.532;2024-02-21T11:06:35;28.13;;;17.55;;
51556;SDS011;38766;53.194;5.532;2024-02-21T11:09:06;30.75;;;16.67;;
51556;SDS011;38766;53.194;5.532;2024-02-21T11:11:33;29.02;;;17.60;;
51556;SDS011;38766;53.194;5.532;2024-02-21T11:14:06;29.08;;;16.95;;
51556;SDS011;38766;53.194;5.532;2024-02-21T11:16:37;27.02;;;16.83;;
51556;SDS011;38766;53.194;5.532;2024-02-21T11:19:07;26.98;;;17.20;;
51556;SDS011;38766;53.194;5.532;2024-02-21T11:21:35;29.98;;;18.10;;
51556;SDS011;38766;53.194;5.532;2024-02-21T11:24:05;33.95;;;17.00;;
51556;SDS011;38766;53.194;5.532;2024-02-21T11:26:31;32.42;;;17.23;;
51556;SDS011;38766;53.194;5.532;2024-02-21T11:28:58;26.17;;;17.25;;
51556;SDS011;38766;53.194;5.532;2024-02-21T11:31:25;29.67;;;17.88;;
51556;SDS011;38766;53.194;5.532;2024-02-21T11:33:52;27.35;;;17.45;;
51556;SDS011;38766;53.194;5.532;2024-02-21T11:36:25;31.50;;;20.00;;
51556;SDS011;38766;53.194;5.532;2024-02-21T11:38:51;28.50;;;19.63;;
51556;SDS011;38766;53.194;5.532;2024-02-21T11:41:18;32.30;;;20.25;;
51556;SDS011;38766;53.194;5.532;2024-02-21T11:43:46;30.70;;;19.77;;
51556;SDS011;38766;53.194;5.532;2024-02-21T11:46:14;35.65;;;21.45;;
51556;SDS011;38766;53.194;5.532;2024-02-21T11:48:40;30.38;;;19.83;;
51556;SDS011;38766;53.194;5.532;2024-02-21T11:51:06;32.60;;;21.15;;
51556;SDS011;38766;53.194;5.532;2024-02-21T11:53:32;33.72;;;21.02;;
51556;SDS011;38766;53.194;5.532;2024-02-21T11:55:58;27.58;;;19.98;;
51556;SDS011;38766;53.194;5.532;2024-02-21T11:58:24;31.02;;;20.23;;
51556;SDS011;38766;53.194;5.532;2024-02-21T12:00:50;28.25;;;18.75;;
51556;SDS011;38766;53.194;5.532;2024-02-21T12:03:16;37.60;;;20.33;;
51556;SDS011;38766;53.194;5.532;2024-02-21T12:05:42;27.27;;;19.20;;
51556;SDS011;38766;53.194;5.532;2024-02-21T12:08:08;31.63;;;19.08;;
51556;SDS011;38766;53.194;5.532;2024-02-21T12:10:35;29.80;;;20.05;;
51556;SDS011;38766;53.194;5.532;2024-02-21T12:13:22;29.35;;;18.88;;
51556;SDS011;38766;53.194;5.532;2024-02-21T12:15:48;26.42;;;16.73;;
51556;SDS011;38766;53.194;5.532;2024-02-21T12:18:14;29.88;;;18.42;;
51556;SDS011;38766;53.194;5.532;2024-02-21T12:20:40;24.20;;;17.60;;
51556;SDS011;38766;53.194;5.532;2024-02-21T12:23:09;24.52;;;16.45;;
51556;SDS011;38766;53.194;5.532;2024-02-21T12:25:35;23.50;;;15.80;;
51556;SDS011;38766;53.194;5.532;2024-02-21T12:28:01;25.58;;;16.15;;
51556;SDS011;38766;53.194;5.532;2024-02-21T12:30:28;24.80;;;16.67;;
51556;SDS011;38766;53.194;5.532;2024-02-21T12:32:55;24.17;;;15.10;;
51556;SDS011;38766;53.194;5.532;2024-02-21T12:35:21;24.80;;;13.93;;
51556;SDS011;38766;53.194;5.532;2024-02-21T12:37:47;22.15;;;14.10;;
51556;SDS011;38766;53.194;5.532;2024-02-21T12:40:13;21.50;;;13.57;;
51556;SDS011;38766;53.194;5.532;2024-02-21T12:42:39;21.05;;;12.95;;
51556;SDS011;38766;53.194;5.532;2024-02-21T12:45:05;20.73;;;14.10;;
51556;SDS011;38766;53.194;5.532;2024-02-21T12:47:30;19.73;;;13.05;;
51556;SDS011;38766;53.194;5.532;2024-02-21T12:49:56;20.00;;;12.10;;
51556;SDS011;38766;53.194;5.532;2024-02-21T12:52:22;16.73;;;12.38;;
51556;SDS011;38766;53.194;5.532;2024-02-21T12:54:47;19.10;;;11.27;;
51556;SDS011;38766;53.194;5.532;2024-02-21T12:57:13;19.27;;;11.63;;
51556;SDS011;38766;53.194;5.532;2024-02-21T12:59:39;18.15;;;11.55;;
51556;SDS011;38766;53.194;5.532;2024-02-21T13:02:05;18.85;;;11.85;;
51556;SDS011;38766;53.194;5.532;2024-02-21T13:04:31;16.95;;;11.70;;
51556;SDS011;38766;53.194;5.532;2024-02-21T13:06:56;16.33;;;10.93;;
51556;SDS011;38766;53.194;5.532;2024-02-21T13:09:22;18.05;;;11.18;;
51556;SDS011;38766;53.194;5.532;2024-02-21T13:11:48;18.83;;;10.98;;
51556;SDS011;38766;53.194;5.532;2024-02-21T13:14:14;15.43;;;9.90;;
51556;SDS011;38766;53.194;5.532;2024-02-21T13:16:39;16.33;;;9.65;;
51556;SDS011;38766;53.194;5.532;2024-02-21T13:19:05;15.02;;;10.13;;
51556;SDS011;38766;53.194;5.532;2024-02-21T13:21:33;12.10;;;10.13;;
51556;SDS011;38766;53.194;5.532;2024-02-21T13:24:02;11.98;;;9.20;;
51556;SDS011;38766;53.194;5.532;2024-02-21T13:26:28;14.73;;;9.68;;
51556;SDS011;38766;53.194;5.532;2024-02-21T13:28:54;13.10;;;9.30;;
51556;SDS011;38766;53.194;5.532;2024-02-21T13:31:20;10.88;;;8.52;;
51556;SDS011;38766;53.194;5.532;2024-02-21T13:33:46;13.32;;;8.77;;
51556;SDS011;38766;53.194;5.532;2024-02-21T13:36:11;14.18;;;9.10;;
51556;SDS011;38766;53.194;5.532;2024-02-21T13:38:37;12.90;;;9.10;;
51556;SDS011;38766;53.194;5.532;2024-02-21T13:41:06;12.48;;;8.82;;
51556;SDS011;38766;53.194;5.532;2024-02-21T13:43:32;13.27;;;8.75;;
51556;SDS011;38766;53.194;5.532;2024-02-21T13:45:58;12.43;;;9.07;;
51556;SDS011;38766;53.194;5.532;2024-02-21T13:48:25;13.00;;;9.73;;
51556;SDS011;38766;53.194;5.532;2024-02-21T13:50:52;14.85;;;9.63;;
51556;SDS011;38766;53.194;5.532;2024-02-21T13:53:17;13.43;;;10.15;;
51556;SDS011;38766;53.194;5.532;2024-02-21T13:55:47;13.30;;;9.77;;
51556;SDS011;38766;53.194;5.532;2024-02-21T13:58:12;14.63;;;9.93;;
51556;SDS011;38766;53.194;5.532;2024-02-21T14:00:39;15.13;;;10.63;;
51556;SDS011;38766;53.194;5.532;2024-02-21T14:03:05;14.68;;;10.38;;
51556;SDS011;38766;53.194;5.532;2024-02-21T14:05:30;18.40;;;10.63;;
51556;SDS011;38766;53.194;5.532;2024-02-21T14:07:56;13.20;;;10.00;;
51556;SDS011;38766;53.194;5.532;2024-02-21T14:10:22;15.02;;;10.70;;
51556;SDS011;38766;53.194;5.532;2024-02-21T14:12:48;13.10;;;9.75;;
51556;SDS011;38766;53.194;5.532;2024-02-21T14:15:14;15.32;;;10.02;;
51556;SDS011;38766;53.194;5.532;2024-02-21T14:17:42;13.65;;;9.35;;
51556;SDS011;38766;53.194;5.532;2024-02-21T14:20:08;13.50;;;9.18;;
51556;SDS011;38766;53.194;5.532;2024-02-21T14:22:34;13.23;;;9.90;;
51556;SDS011;38766;53.194;5.532;2024-02-21T14:25:00;13.00;;;9.38;;
51556;SDS011;38766;53.194;5.532;2024-02-21T14:27:25;14.23;;;9.27;;
51556;SDS011;38766;53.194;5.532;2024-02-21T14:29:51;14.73;;;10.43;;